Pagrindinis puslapis
METAR-TAF:

METAR-TAF

Oro uostai :

Oro pajėgų bazė Cameri

Novara, Italija

platuma: 45-31N, ilguma: 008-40E, Aukštis: 178 m

Dabartinis oras

Ataskaita buvo paskelbta 3 valandos ir 26 minutes, ne 17:55 UTC
Vėjas 2 kt iš Pietų/Pietvakarių
Temperatūra 21°C
Drėgmė 33%
Slėgis 1020 hPa
Matomumas 10 km arba daugiau
nėra debesų žemiau 1500 m ir nėra kamuolinių lietaus debesų

METAR: LIMN 091755Z 21002KT CAVOK 21/04 Q1020 RMK SKC VIS MIN 9999 BLK BLU

Laikas: 23:21 (21:21 UTC)

Prognozė

Ataskaita buvo paskelbta 28 valandos ir 21 minutes, ne 17:00 UTC
Prognozė galioja nuo 08 metu 18 UTC su 09 metu 03 UTC
Vėjas 5 kt nuo kintamojo kryptimis
Matomumas 10 km arba daugiau
nėra debesų žemiau 1500 m ir nėra kamuolinių lietaus debesų

TAF: LIMN 081700Z 0818/0903 VRB05KT CAVOK

Orai ataskaitas ir orų prognozės (METAR, TAF).

turimą stotys yra geltonos ir raudonos taškus žemėlapyje.

Perkelti pele per norėdami pamatyti stoties vardą.

Tada spustelėkite, norėdami matyti oro stebėjimo ir prognozės.

Norėdami pakeisti žemėlapį: spustelėkite ant žalios mygtukų su juodo kryžiaus žemyn,; žalią mygtuką su brūkšneliu, jei norite nutolinti; arba žalių rodyklių gretimoms žemėlapius.


METAR-TAF: